International Virtual Aviation Organisation

Russian Federation and Kazakhstan MCD

 

Карточка аэропорта UAKK

Внимание!
Информация на этой странице в стадии наполнения.
Если вы не увидели какой-то информации, или заметили неточность - пожалуйста сообщите нам!
Спасибо!
Команда RU-STAFF
Название аэропортаКараганда
Название аэропорта (англ.)Karaganda
Превышение1768 ft. (538.9 m.)
Координаты49°40.302', 73°20.118'
Высота перехода10000
Эшелон переходаby ATC
Коды ответчика0630-0637, 7220-7227
Зона ОрВДНур-Султан РПИ (UACN)
Данные METARUAKK 300130Z 27003MPS 8000 -SN SCT011 OVC018 M15/M18 Q1041 R23/490545 NOSIG RMK QFE732/0977
Проноз погоды (TAF)UAKK 292301Z 3000/3024 VRB02MPS 4000 -SN BKN011 OVC030 TXM12/3009Z TNM18/3001Z TEMPO 3000/3004 3100 BR BKN005 BECMG 3006/3008 9999 NSW SCT015 BKN100 TEMPO 3006/3015 06005MPS TEMPO 3015/3024 3100 IC BR SCT005
NOTAMshow/hide NOTAM
AWOS   TABLE

Информация о ВПП

ВПП Длина ВПП (м.) Покрытие Курс ВПП Частота ILS
053601Железобетон50109.9
233601Железобетон230111.7

Диспетчерские позиции




Спутниковое изображение